createdAt,value
2023-06-10T00:02:24.602Z,6.50
2023-06-10T00:04:51.542Z,7.15
2023-06-10T00:07:18.593Z,6.47
2023-06-10T00:09:45.259Z,7.72
2023-06-10T00:12:13.559Z,7.22
2023-06-10T00:14:44.043Z,7.72
2023-06-10T00:17:11.630Z,8.20
2023-06-10T00:19:42.629Z,8.20
2023-06-10T00:22:12.119Z,8.25
2023-06-10T00:24:39.053Z,7.97
2023-06-10T00:27:08.454Z,7.53
2023-06-10T00:29:35.507Z,8.55
2023-06-10T00:32:02.642Z,8.40
2023-06-10T00:34:29.486Z,8.00
2023-06-10T00:36:56.564Z,8.02
2023-06-10T00:39:23.347Z,6.80
2023-06-10T00:41:51.299Z,7.30
2023-06-10T00:44:18.020Z,7.68
2023-06-10T00:46:45.565Z,7.65
2023-06-10T00:49:12.368Z,7.22
2023-06-10T00:51:40.810Z,7.07
2023-06-10T00:54:08.334Z,7.40
2023-06-10T00:56:37.594Z,7.22
2023-06-10T00:59:04.240Z,6.93
2023-06-10T01:01:31.843Z,6.97
2023-06-10T01:03:59.804Z,6.88
2023-06-10T01:06:38.882Z,7.07
2023-06-10T01:09:38.479Z,7.55
2023-06-10T01:12:18.447Z,7.53
2023-06-10T01:14:46.136Z,7.38
2023-06-10T01:17:18.139Z,7.28
2023-06-10T01:19:45.679Z,7.90
2023-06-10T01:22:17.165Z,7.18
2023-06-10T01:24:44.853Z,7.03
2023-06-10T01:27:17.020Z,7.20
2023-06-10T01:29:53.904Z,7.53
2023-06-10T01:32:41.628Z,7.78
2023-06-10T01:35:10.318Z,7.63
2023-06-10T01:37:41.058Z,7.60
2023-06-10T01:40:09.058Z,7.28
2023-06-10T01:42:37.006Z,7.88
2023-06-10T01:45:04.189Z,6.90
2023-06-10T01:47:31.800Z,7.85
2023-06-10T01:50:00.631Z,8.40
2023-06-10T01:52:29.247Z,7.53
2023-06-10T01:54:56.019Z,7.60
2023-06-10T01:57:23.312Z,7.78
2023-06-10T01:59:50.035Z,8.45
2023-06-10T02:02:17.305Z,8.45
2023-06-10T02:04:44.186Z,8.00
2023-06-10T02:07:13.587Z,8.55
2023-06-10T02:09:40.252Z,8.77
2023-06-10T02:12:08.086Z,9.48
2023-06-10T02:14:35.140Z,8.13
2023-06-10T02:17:02.518Z,8.35
2023-06-10T02:19:29.387Z,8.75
2023-06-10T02:21:56.777Z,8.38
2023-06-10T02:24:23.631Z,8.95
2023-06-10T02:26:53.042Z,8.00
2023-06-10T02:29:19.687Z,8.30
2023-06-10T02:31:46.984Z,8.25
2023-06-10T02:34:14.633Z,8.50
2023-06-10T02:36:41.951Z,8.13
2023-06-10T02:39:08.958Z,8.90
2023-06-10T02:41:36.767Z,8.13
2023-06-10T02:44:03.945Z,8.27
2023-06-10T02:46:31.411Z,9.43
2023-06-10T02:48:58.147Z,9.10
2023-06-10T02:51:26.325Z,9.20
2023-06-10T02:56:27.129Z,8.70
2023-06-10T02:58:55.463Z,9.40
2023-06-10T03:01:24.529Z,9.30
2023-06-10T03:03:59.713Z,9.65
2023-06-10T03:06:27.703Z,10.10
2023-06-10T03:09:05.575Z,9.13
2023-06-10T03:11:33.144Z,9.80
2023-06-10T03:13:59.925Z,9.57
2023-06-10T03:16:29.462Z,10.32
2023-06-10T03:18:56.229Z,10.10
2023-06-10T03:21:24.392Z,9.88
2023-06-10T03:23:51.735Z,10.43
2023-06-10T03:26:22.814Z,9.88
2023-06-10T03:28:50.930Z,10.23
2023-06-10T03:31:19.458Z,10.48
2023-06-10T03:33:46.330Z,10.57
2023-06-10T03:36:13.953Z,9.32
2023-06-10T03:38:40.990Z,10.50
2023-06-10T03:41:09.032Z,10.75
2023-06-10T03:43:36.824Z,10.18
2023-06-10T03:46:04.199Z,11.07
2023-06-10T03:48:32.354Z,10.43
2023-06-10T03:50:59.906Z,10.68
2023-06-10T03:53:26.640Z,10.70
2023-06-10T03:55:53.918Z,10.25
2023-06-10T03:58:23.808Z,10.48
2023-06-10T04:00:51.153Z,10.23
2023-06-10T04:03:18.101Z,10.45
2023-06-10T04:05:48.134Z,9.60
2023-06-10T04:08:14.898Z,10.13
2023-06-10T04:10:42.173Z,10.05
2023-06-10T04:13:09.881Z,10.40
2023-06-10T04:15:42.356Z,10.45
2023-06-10T04:18:12.914Z,11.25
2023-06-10T04:20:40.280Z,11.25
2023-06-10T04:23:07.516Z,10.48
2023-06-10T04:25:35.294Z,10.82
2023-06-10T04:28:02.196Z,11.07
2023-06-10T04:30:29.862Z,10.98
2023-06-10T04:32:57.600Z,10.73
2023-06-10T04:35:25.918Z,10.15
2023-06-10T04:37:52.667Z,10.75
2023-06-10T04:40:20.897Z,11.13
2023-06-10T04:42:48.392Z,9.98
2023-06-10T04:45:15.886Z,11.10
2023-06-10T04:47:43.082Z,10.10
2023-06-10T04:50:11.949Z,10.63
2023-06-10T04:52:38.643Z,10.68
2023-06-10T04:55:07.287Z,9.82
2023-06-10T04:57:34.252Z,10.25
2023-06-10T05:00:01.600Z,9.55
2023-06-10T05:02:28.431Z,9.90
2023-06-10T05:04:56.347Z,10.18
2023-06-10T05:07:22.994Z,9.48
2023-06-10T05:09:50.391Z,9.82
2023-06-10T05:12:17.178Z,9.13
2023-06-10T05:14:46.072Z,9.90
2023-06-10T05:17:13.845Z,9.57
2023-06-10T05:19:42.799Z,10.25
2023-06-10T05:22:09.492Z,9.60
2023-06-10T05:24:36.859Z,10.23
2023-06-10T05:27:03.832Z,10.18
2023-06-10T05:29:31.154Z,9.00
2023-06-10T05:31:58.647Z,9.80
2023-06-10T05:34:26.157Z,9.32
2023-06-10T05:36:52.839Z,9.65
2023-06-10T05:39:20.187Z,9.82
2023-06-10T05:41:47.239Z,9.60
2023-06-10T05:44:14.597Z,10.50
2023-06-10T05:46:41.469Z,9.20
2023-06-10T05:49:08.740Z,9.65
2023-06-10T05:51:35.675Z,10.68
2023-06-10T05:54:02.948Z,10.27
2023-06-10T05:56:30.199Z,10.35
2023-06-10T05:58:57.741Z,10.32
2023-06-10T06:01:24.492Z,10.15
2023-06-10T06:03:51.596Z,10.18
2023-06-10T06:06:21.329Z,10.75
2023-06-10T06:08:48.614Z,9.73
2023-06-10T06:11:15.517Z,9.40
2023-06-10T06:13:43.397Z,9.63
2023-06-10T06:16:10.128Z,9.68
2023-06-10T06:18:37.486Z,10.50
2023-06-10T06:21:04.207Z,9.32
2023-06-10T06:23:31.844Z,9.80
2023-06-10T06:25:58.553Z,9.15
2023-06-10T06:28:30.565Z,9.32
2023-06-10T06:30:58.022Z,9.00
2023-06-10T06:33:27.640Z,8.63
2023-06-10T06:35:54.358Z,8.43
2023-06-10T06:38:21.338Z,9.88
2023-06-10T06:40:48.066Z,8.98
2023-06-10T06:43:15.586Z,8.55
2023-06-10T06:45:50.094Z,8.13
2023-06-10T06:48:17.464Z,8.88
2023-06-10T06:50:44.140Z,8.45
2023-06-10T06:53:11.136Z,9.35
2023-06-10T06:55:38.417Z,8.95
2023-06-10T06:58:05.514Z,8.57
2023-06-10T07:00:33.596Z,9.27
2023-06-10T07:03:00.380Z,7.95
2023-06-10T07:05:28.680Z,9.00
2023-06-10T07:07:56.953Z,9.23
2023-06-10T07:10:27.901Z,8.93
2023-06-10T07:12:54.908Z,8.73
2023-06-10T07:15:22.477Z,8.57
2023-06-10T07:17:49.515Z,8.20
2023-06-10T07:20:16.683Z,9.75
2023-06-10T07:22:43.686Z,8.50
2023-06-10T07:25:11.442Z,7.90
2023-06-10T07:27:38.423Z,8.88
2023-06-10T07:30:09.298Z,8.65
2023-06-10T07:32:36.043Z,8.50
2023-06-10T07:35:03.524Z,7.78
2023-06-10T07:37:30.264Z,7.90
2023-06-10T07:39:58.243Z,7.43
2023-06-10T07:42:24.953Z,7.20
2023-06-10T07:44:52.270Z,8.50
2023-06-10T07:47:19.199Z,8.65
2023-06-10T07:49:46.511Z,8.48
2023-06-10T07:52:13.538Z,9.43
2023-06-10T07:54:40.695Z,8.95
2023-06-10T07:57:10.880Z,7.75
2023-06-10T07:59:38.319Z,7.80
2023-06-10T08:02:05.777Z,8.40
2023-06-10T08:04:33.821Z,8.73
2023-06-10T08:07:00.868Z,8.75
2023-06-10T08:09:27.558Z,8.07
2023-06-10T08:11:54.980Z,8.35
2023-06-10T08:14:21.659Z,7.75
2023-06-10T08:16:48.658Z,8.38
2023-06-10T08:19:16.003Z,8.90
2023-06-10T08:21:43.392Z,8.27
2023-06-10T08:24:11.179Z,7.35
2023-06-10T08:26:40.297Z,7.85
2023-06-10T08:29:06.956Z,7.53
2023-06-10T08:31:34.328Z,7.38
2023-06-10T08:34:01.032Z,7.65
2023-06-10T08:36:28.419Z,7.45
2023-06-10T08:38:55.024Z,7.35
2023-06-10T08:41:25.449Z,7.07
2023-06-10T08:44:05.079Z,8.15
2023-06-10T08:46:34.571Z,7.25
2023-06-10T08:49:06.502Z,7.30
2023-06-10T08:51:35.876Z,7.57
2023-06-10T08:54:12.490Z,7.35
2023-06-10T08:56:41.592Z,7.93
2023-06-10T08:59:09.895Z,6.70
2023-06-10T09:01:38.094Z,6.97
2023-06-10T09:04:05.133Z,7.10
2023-06-10T09:06:35.080Z,7.63
2023-06-10T09:09:03.771Z,7.53
2023-06-10T09:11:32.820Z,7.50
2023-06-10T09:13:59.552Z,7.65
2023-06-10T09:16:27.011Z,7.00
2023-06-10T09:18:56.174Z,6.63
2023-06-10T09:21:24.642Z,6.95
2023-06-10T09:23:52.608Z,7.38
2023-06-10T09:26:19.869Z,7.55
2023-06-10T09:28:50.951Z,6.57
2023-06-10T09:31:23.146Z,7.22
2023-06-10T09:33:50.165Z,7.05
2023-06-10T09:36:24.599Z,7.55
2023-06-10T09:38:54.606Z,6.93
2023-06-10T09:41:22.554Z,6.65
2023-06-10T09:43:50.445Z,6.95
2023-06-10T09:46:19.478Z,7.25
2023-06-10T09:48:48.389Z,6.57
2023-06-10T09:51:18.344Z,6.43
2023-06-10T09:53:51.063Z,7.45
2023-06-10T09:56:18.733Z,7.18
2023-06-10T09:58:47.444Z,7.13
2023-06-10T10:01:15.737Z,7.15
2023-06-10T10:03:51.722Z,7.43
2023-06-10T10:06:20.264Z,7.30
2023-06-10T10:08:51.380Z,6.90
2023-06-10T10:11:21.000Z,8.27
2023-06-10T10:13:49.959Z,8.15
2023-06-10T10:16:42.138Z,8.45
2023-06-10T10:19:16.984Z,7.63
2023-06-10T10:22:12.122Z,7.32
2023-06-10T10:24:50.060Z,7.65
2023-06-10T10:27:27.955Z,6.80
2023-06-10T10:29:56.294Z,7.43
2023-06-10T10:32:39.444Z,6.20
2023-06-10T10:35:10.151Z,5.93
2023-06-10T10:37:37.913Z,6.53
2023-06-10T10:40:06.627Z,6.28
2023-06-10T10:42:34.986Z,5.88
2023-06-10T10:45:03.058Z,6.40
2023-06-10T10:47:34.322Z,6.80
2023-06-10T10:50:01.314Z,5.82
2023-06-10T10:52:59.912Z,6.22
2023-06-10T10:55:27.970Z,6.28
2023-06-10T10:57:57.511Z,6.45
2023-06-10T11:00:32.343Z,5.82
2023-06-10T11:03:11.882Z,6.40
2023-06-10T11:05:45.262Z,6.07
2023-06-10T11:08:13.023Z,6.70
2023-06-10T11:10:53.786Z,6.20
2023-06-10T11:13:23.437Z,5.97
2023-06-10T11:15:51.807Z,5.70
2023-06-10T11:18:28.412Z,6.13
2023-06-10T11:21:08.092Z,5.18
2023-06-10T11:23:40.018Z,5.72
2023-06-10T11:26:22.115Z,5.93
2023-06-10T11:28:49.478Z,6.00
2023-06-10T11:31:38.804Z,6.22
2023-06-10T11:34:07.753Z,6.90
2023-06-10T11:36:37.849Z,6.13
2023-06-10T11:39:07.046Z,6.55
2023-06-10T11:41:34.953Z,6.30
2023-06-10T11:44:09.105Z,5.80
2023-06-10T11:46:36.611Z,6.07
2023-06-10T11:49:06.550Z,5.70
2023-06-10T11:51:38.513Z,5.22
2023-06-10T11:54:06.377Z,5.72
2023-06-10T11:56:33.469Z,6.05
2023-06-10T11:59:05.983Z,5.88
2023-06-10T12:01:44.789Z,5.93
2023-06-10T12:04:14.168Z,5.88
2023-06-10T12:06:44.346Z,5.88
2023-06-10T12:09:31.390Z,5.75
2023-06-10T12:12:04.348Z,6.15
2023-06-10T12:15:07.288Z,5.40
2023-06-10T12:17:35.042Z,5.80
2023-06-10T12:20:04.903Z,6.55
2023-06-10T12:22:45.106Z,6.13
2023-06-10T12:25:13.631Z,6.22
2023-06-10T12:27:51.546Z,6.18
2023-06-10T12:30:22.837Z,5.95
2023-06-10T12:32:49.688Z,5.72
2023-06-10T12:35:22.387Z,5.78
2023-06-10T12:40:29.987Z,6.15
2023-06-10T12:42:57.316Z,5.53
2023-06-10T12:45:32.299Z,6.25
2023-06-10T12:48:13.570Z,5.80
2023-06-10T12:50:42.709Z,5.50
2023-06-10T12:53:12.115Z,6.07
2023-06-10T12:55:39.928Z,6.18
2023-06-10T12:58:06.711Z,5.85
2023-06-10T13:00:36.389Z,6.30
2023-06-10T13:03:04.053Z,6.30
2023-06-10T13:05:31.500Z,5.57
2023-06-10T13:07:58.825Z,5.80
2023-06-10T13:10:26.873Z,5.63
2023-06-10T13:12:55.642Z,5.93
2023-06-10T13:15:23.335Z,5.88
2023-06-10T13:17:51.559Z,5.35
2023-06-10T13:20:19.802Z,6.15
2023-06-10T13:22:46.745Z,5.78
2023-06-10T13:25:14.761Z,5.85
2023-06-10T13:27:42.929Z,6.05
2023-06-10T13:30:12.398Z,5.63
2023-06-10T13:32:39.601Z,6.07
2023-06-10T13:35:08.867Z,5.45
2023-06-10T13:37:36.202Z,6.13
2023-06-10T13:40:04.229Z,6.07
2023-06-10T13:42:31.371Z,5.88
2023-06-10T13:44:58.680Z,6.07
2023-06-10T13:47:25.642Z,5.45
2023-06-10T13:49:52.992Z,5.28
2023-06-10T13:52:19.708Z,5.82
2023-06-10T13:54:46.683Z,5.65
2023-06-10T13:57:13.420Z,6.68
2023-06-10T13:59:40.089Z,5.65
2023-06-10T14:02:07.729Z,6.18
2023-06-10T14:04:34.474Z,6.15
2023-06-10T14:07:02.113Z,6.07
2023-06-10T14:09:28.956Z,6.28
2023-06-10T14:11:56.391Z,5.78
2023-06-10T14:14:23.827Z,6.00
2023-06-10T14:16:51.267Z,5.85
2023-06-10T14:19:18.065Z,5.90
2023-06-10T14:21:45.404Z,6.10
2023-06-10T14:24:12.112Z,5.72
2023-06-10T14:26:39.485Z,5.57
2023-06-10T14:29:06.155Z,6.22
2023-06-10T14:31:33.747Z,5.90
2023-06-10T14:34:00.611Z,6.00
2023-06-10T14:36:28.088Z,5.28
2023-06-10T14:38:54.821Z,5.70
2023-06-10T14:41:23.596Z,6.03
2023-06-10T14:43:50.433Z,5.97
2023-06-10T14:46:17.956Z,5.80
2023-06-10T14:48:44.756Z,5.97
2023-06-10T14:51:12.057Z,5.85
2023-06-10T14:53:38.825Z,5.75
2023-06-10T14:56:06.554Z,6.35
2023-06-10T14:58:33.260Z,5.82
2023-06-10T15:01:00.720Z,5.90
2023-06-10T15:03:27.382Z,5.70
2023-06-10T15:05:54.641Z,6.57
2023-06-10T15:08:21.435Z,6.00
2023-06-10T15:10:49.665Z,5.88
2023-06-10T15:13:16.516Z,5.65
2023-06-10T15:18:31.635Z,5.50
2023-06-10T15:20:58.951Z,5.78
2023-06-10T15:23:25.697Z,5.22
2023-06-10T15:25:53.168Z,6.30
2023-06-10T15:28:19.856Z,6.50
2023-06-10T15:30:47.149Z,6.05
2023-06-10T15:33:13.836Z,6.10
2023-06-10T15:35:41.329Z,5.70
2023-06-10T15:38:07.979Z,6.40
2023-06-10T15:40:36.332Z,6.35
2023-06-10T15:43:02.978Z,6.38
2023-06-10T15:45:32.478Z,6.15
2023-06-10T15:48:00.679Z,6.13
2023-06-10T15:50:28.099Z,5.53
2023-06-10T15:52:54.879Z,6.35
2023-06-10T15:55:22.274Z,6.18
2023-06-10T15:57:48.999Z,5.75
2023-06-10T16:00:17.214Z,5.57
2023-06-10T16:02:43.920Z,5.40
2023-06-10T16:05:11.589Z,7.05
2023-06-10T16:07:38.648Z,6.50
2023-06-10T16:10:06.294Z,5.65
2023-06-10T16:12:32.977Z,6.05
2023-06-10T16:15:00.307Z,6.07
2023-06-10T16:17:27.096Z,5.95
2023-06-10T16:19:54.511Z,6.20
2023-06-10T16:22:21.277Z,5.60
2023-06-10T16:24:48.545Z,5.85
2023-06-10T16:27:15.197Z,5.65
2023-06-10T16:29:42.498Z,5.35
2023-06-10T16:32:09.317Z,5.63
2023-06-10T16:34:36.612Z,5.35
2023-06-10T16:37:03.788Z,5.88
2023-06-10T16:39:31.271Z,5.50
2023-06-10T16:41:57.950Z,5.28
2023-06-10T16:44:25.466Z,6.13
2023-06-10T16:46:52.241Z,5.43
2023-06-10T16:49:19.863Z,5.55
2023-06-10T16:51:46.507Z,6.05
2023-06-10T16:54:13.971Z,5.32
2023-06-10T16:56:41.155Z,5.18
2023-06-10T16:59:08.822Z,5.75
2023-06-10T17:01:35.494Z,5.18
2023-06-10T17:04:02.791Z,6.07
2023-06-10T17:06:29.436Z,5.47
2023-06-10T17:08:56.809Z,5.28
2023-06-10T17:11:23.759Z,5.35
2023-06-10T17:13:51.643Z,5.70
2023-06-10T17:16:18.358Z,5.43
2023-06-10T17:18:45.766Z,5.13
2023-06-10T17:21:12.471Z,5.68
2023-06-10T17:23:39.812Z,5.82
2023-06-10T17:26:06.592Z,5.65
2023-06-10T17:28:33.587Z,5.35
2023-06-10T17:31:00.241Z,5.30
2023-06-10T17:33:27.634Z,5.53
2023-06-10T17:35:54.368Z,5.18
2023-06-10T17:38:23.231Z,5.60
2023-06-10T17:40:49.898Z,5.53
2023-06-10T17:43:17.329Z,5.55
2023-06-10T17:45:44.143Z,6.43
2023-06-10T17:48:11.696Z,5.75
2023-06-10T17:50:38.440Z,5.50
2023-06-10T17:53:05.854Z,5.38
2023-06-10T17:55:33.291Z,6.00
2023-06-10T17:58:00.716Z,5.60
2023-06-10T18:00:27.542Z,4.95
2023-06-10T18:02:55.096Z,5.63
2023-06-10T18:05:22.106Z,5.63
2023-06-10T18:07:49.548Z,5.50
2023-06-10T18:10:16.283Z,5.25
2023-06-10T18:12:43.613Z,5.75
2023-06-10T18:15:10.807Z,5.20
2023-06-10T18:17:38.517Z,5.13
2023-06-10T18:20:06.017Z,5.43
2023-06-10T18:22:33.504Z,6.03
2023-06-10T18:25:05.600Z,6.05
2023-06-10T18:27:34.079Z,5.80
2023-06-10T18:30:01.106Z,5.50
2023-06-10T18:32:28.581Z,5.65
2023-06-10T18:34:55.412Z,5.63
2023-06-10T18:37:22.753Z,6.47
2023-06-10T18:39:50.504Z,5.50
2023-06-10T18:42:17.804Z,5.13
2023-06-10T18:44:44.581Z,5.70
2023-06-10T18:47:11.901Z,5.50
2023-06-10T18:49:39.175Z,6.13
2023-06-10T18:52:09.517Z,5.40
2023-06-10T18:54:36.345Z,5.35
2023-06-10T18:57:04.034Z,5.85
2023-06-10T18:59:30.734Z,5.40
2023-06-10T19:01:58.119Z,5.15
2023-06-10T19:04:24.973Z,5.68
2023-06-10T19:06:52.729Z,5.97
2023-06-10T19:09:19.686Z,5.50
2023-06-10T19:11:46.970Z,5.88
2023-06-10T19:14:13.726Z,6.10
2023-06-10T19:16:41.253Z,6.03
2023-06-10T19:19:07.966Z,6.78
2023-06-10T19:21:35.339Z,6.25
2023-06-10T19:24:02.125Z,5.97
2023-06-10T19:26:29.540Z,5.82
2023-06-10T19:28:56.287Z,6.80
2023-06-10T19:31:23.755Z,6.63
2023-06-10T19:33:50.495Z,5.95
2023-06-10T19:36:17.849Z,6.10
2023-06-10T19:38:44.480Z,6.35
2023-06-10T19:41:11.796Z,5.97
2023-06-10T19:43:38.509Z,5.82
2023-06-10T19:46:05.932Z,5.68
2023-06-10T19:48:32.948Z,6.72
2023-06-10T19:51:00.307Z,6.63
2023-06-10T19:53:27.001Z,6.28
2023-06-10T19:55:54.001Z,6.20
2023-06-10T19:58:21.300Z,5.63
2023-06-10T20:00:48.055Z,5.70
2023-06-10T20:03:15.378Z,6.25
2023-06-10T20:05:42.139Z,5.97
2023-06-10T20:08:09.699Z,6.53
2023-06-10T20:10:36.515Z,6.53
2023-06-10T20:13:03.857Z,6.22
2023-06-10T20:15:30.685Z,6.63
2023-06-10T20:17:58.004Z,6.78
2023-06-10T20:20:25.126Z,6.22
2023-06-10T20:22:52.403Z,7.25
2023-06-10T20:25:19.146Z,7.13
2023-06-10T20:27:46.508Z,7.18
2023-06-10T20:30:14.645Z,6.32
2023-06-10T20:32:41.961Z,6.47
2023-06-10T20:35:10.266Z,6.88
2023-06-10T20:37:37.897Z,6.05
2023-06-10T20:40:06.358Z,6.10
2023-06-10T20:42:33.750Z,6.75
2023-06-10T20:45:00.562Z,6.18
2023-06-10T20:47:27.917Z,6.72
2023-06-10T20:49:54.684Z,6.28
2023-06-10T20:52:21.996Z,7.45
2023-06-10T20:54:48.698Z,6.57
2023-06-10T20:57:16.020Z,6.93
2023-06-10T20:59:42.670Z,6.70
2023-06-10T21:02:10.057Z,7.40
2023-06-10T21:04:36.768Z,7.18
2023-06-10T21:07:03.974Z,6.63
2023-06-10T21:09:30.739Z,6.32
2023-06-10T21:11:58.013Z,6.72
2023-06-10T21:14:24.632Z,6.88
2023-06-10T21:16:51.714Z,5.43
2023-06-10T21:19:18.999Z,6.38
2023-06-10T21:21:45.750Z,6.55
2023-06-10T21:24:13.107Z,6.05
2023-06-10T21:26:40.333Z,5.70
2023-06-10T21:29:08.134Z,5.88
2023-06-10T21:31:34.842Z,5.53
2023-06-10T21:34:01.936Z,6.05
2023-06-10T21:36:28.600Z,6.07
2023-06-10T21:38:55.613Z,6.18
2023-06-10T21:41:23.221Z,5.97
2023-06-10T21:43:50.570Z,6.20
2023-06-10T21:46:17.241Z,5.72
2023-06-10T21:48:44.494Z,6.43
2023-06-10T21:51:11.214Z,6.15
2023-06-10T21:53:38.507Z,6.50
2023-06-10T21:56:05.544Z,6.63
2023-06-10T21:58:32.854Z,7.65
2023-06-10T22:00:59.998Z,7.18
2023-06-10T22:03:27.772Z,6.93
2023-06-10T22:05:54.580Z,7.10
2023-06-10T22:08:21.901Z,6.75
2023-06-10T22:10:48.554Z,7.15
2023-06-10T22:13:19.323Z,7.53
2023-06-10T22:15:46.092Z,7.50
2023-06-10T22:18:13.247Z,6.95
2023-06-10T22:20:41.292Z,7.68
2023-06-10T22:23:08.576Z,7.63
2023-06-10T22:25:35.380Z,8.20
2023-06-10T22:28:02.782Z,7.63
2023-06-10T22:30:29.460Z,6.65
2023-06-10T22:32:56.831Z,6.90
2023-06-10T22:35:23.566Z,7.13
2023-06-10T22:37:50.913Z,6.82
2023-06-10T22:40:17.709Z,6.95
2023-06-10T22:42:44.753Z,6.53
2023-06-10T22:45:11.693Z,7.65
2023-06-10T22:47:39.627Z,7.03
2023-06-10T22:50:07.049Z,7.32
2023-06-10T22:52:34.358Z,6.78
2023-06-10T22:55:01.108Z,7.38
2023-06-10T22:57:28.473Z,7.43
2023-06-10T22:59:55.180Z,7.30
2023-06-10T23:02:22.571Z,7.03
2023-06-10T23:04:49.343Z,7.63
2023-06-10T23:07:18.479Z,6.80
2023-06-10T23:09:45.286Z,6.85
2023-06-10T23:12:12.622Z,7.10
2023-06-10T23:14:39.333Z,7.07
2023-06-10T23:17:07.145Z,7.30
2023-06-10T23:19:34.186Z,6.40
2023-06-10T23:22:01.145Z,6.93
2023-06-10T23:24:30.619Z,6.93
2023-06-10T23:27:00.022Z,7.32
2023-06-10T23:29:27.147Z,7.70
2023-06-10T23:31:55.582Z,7.30
2023-06-10T23:34:22.678Z,7.07
2023-06-10T23:36:50.085Z,6.82
2023-06-10T23:39:17.060Z,7.40
2023-06-10T23:41:45.420Z,7.30
2023-06-10T23:44:13.259Z,7.35
2023-06-10T23:46:41.109Z,8.38
2023-06-10T23:49:09.674Z,7.97
2023-06-10T23:51:38.712Z,7.53
2023-06-10T23:54:06.350Z,7.38
2023-06-10T23:56:33.923Z,7.18
2023-06-10T23:59:01.010Z,7.78
